createdAt,value
2023-02-24T00:02:15.173Z,60.75
2023-02-24T00:04:44.121Z,59.67
2023-02-24T00:07:12.774Z,58.80
2023-02-24T00:09:40.433Z,55.65
2023-02-24T00:12:11.518Z,55.83
2023-02-24T00:14:41.060Z,59.53
2023-02-24T00:17:08.896Z,63.65
2023-02-24T00:19:36.975Z,57.78
2023-02-24T00:22:06.005Z,59.70
2023-02-24T00:24:33.612Z,68.68
2023-02-24T00:27:07.495Z,58.00
2023-02-24T00:29:39.823Z,60.13
2023-02-24T00:32:12.644Z,59.08
2023-02-24T00:34:41.620Z,62.35
2023-02-24T00:37:09.375Z,62.65
2023-02-24T00:39:41.382Z,63.05
2023-02-24T00:42:11.823Z,60.28
2023-02-24T00:44:41.457Z,64.70
2023-02-24T00:47:10.412Z,67.70
2023-02-24T00:49:43.149Z,71.68
2023-02-24T00:52:21.057Z,66.75
2023-02-24T00:54:49.853Z,69.30
2023-02-24T00:57:18.659Z,65.35
2023-02-24T00:59:47.877Z,71.78
2023-02-24T01:02:15.794Z,67.65
2023-02-24T01:04:45.323Z,67.87
2023-02-24T01:07:14.407Z,67.47
2023-02-24T01:09:44.162Z,71.43
2023-02-24T01:12:38.562Z,68.22
2023-02-24T01:15:09.166Z,68.40
2023-02-24T01:17:37.991Z,67.47
2023-02-24T01:20:19.832Z,64.38
2023-02-24T01:22:49.691Z,73.80
2023-02-24T01:25:20.142Z,72.68
2023-02-24T01:27:47.952Z,73.28
2023-02-24T01:30:18.395Z,73.50
2023-02-24T01:32:47.744Z,74.50
2023-02-24T01:35:15.737Z,73.67
2023-02-24T01:37:43.280Z,74.88
2023-02-24T01:40:18.080Z,72.57
2023-02-24T01:42:47.530Z,83.15
2023-02-24T01:45:18.740Z,77.75
2023-02-24T01:47:47.506Z,75.18
2023-02-24T01:50:16.251Z,77.78
2023-02-24T01:52:47.343Z,80.85
2023-02-24T01:55:16.746Z,79.07
2023-02-24T01:57:46.218Z,77.97
2023-02-24T02:00:37.499Z,77.03
2023-02-24T02:03:12.443Z,74.28
2023-02-24T02:05:41.316Z,77.90
2023-02-24T02:08:09.373Z,76.63
2023-02-24T02:10:40.749Z,69.68
2023-02-24T02:13:08.251Z,75.50
2023-02-24T02:15:40.673Z,71.82
2023-02-24T02:18:21.138Z,73.75
2023-02-24T02:20:53.783Z,77.28
2023-02-24T02:23:58.440Z,76.35
2023-02-24T02:26:44.202Z,72.68
2023-02-24T02:29:36.739Z,75.53
2023-02-24T02:32:35.157Z,77.30
2023-02-24T02:35:09.356Z,77.75
2023-02-24T02:37:43.080Z,77.05
2023-02-24T02:40:19.855Z,80.45
2023-02-24T02:43:02.279Z,81.50
2023-02-24T02:45:40.455Z,80.18
2023-02-24T02:48:20.739Z,79.43
2023-02-24T02:51:04.181Z,79.97
2023-02-24T02:53:42.590Z,76.80
2023-02-24T02:56:18.156Z,79.85
2023-02-24T02:58:49.212Z,82.03
2023-02-24T03:01:21.014Z,84.82
2023-02-24T03:03:53.378Z,79.47
2023-02-24T03:06:33.092Z,82.00
2023-02-24T03:09:16.141Z,81.10
2023-02-24T03:11:53.779Z,76.63
2023-02-24T03:14:24.823Z,78.60
2023-02-24T03:16:53.136Z,84.60
2023-02-24T03:19:26.626Z,78.50
2023-02-24T03:22:25.158Z,80.50
2023-02-24T03:24:52.979Z,73.47
2023-02-24T03:27:39.855Z,77.15
2023-02-24T03:30:16.946Z,75.03
2023-02-24T03:33:19.718Z,74.20
2023-02-24T03:35:51.198Z,77.63
2023-02-24T03:38:20.047Z,77.35
2023-02-24T03:40:49.235Z,76.53
2023-02-24T03:43:30.576Z,74.13
2023-02-24T03:46:00.471Z,72.30
2023-02-24T03:48:28.651Z,71.15
2023-02-24T03:50:59.457Z,71.60
2023-02-24T03:56:34.227Z,73.28
2023-02-24T03:59:25.517Z,74.47
2023-02-24T04:02:00.445Z,73.43
2023-02-24T04:05:03.806Z,70.28
2023-02-24T04:07:52.085Z,69.35
2023-02-24T04:10:34.141Z,67.93
2023-02-24T04:13:38.143Z,63.83
2023-02-24T04:16:18.373Z,68.45
2023-02-24T04:18:50.429Z,66.82
2023-02-24T04:21:20.311Z,69.28
2023-02-24T04:23:48.133Z,64.72
2023-02-24T04:26:17.088Z,67.47
2023-02-24T04:28:48.637Z,66.07
2023-02-24T04:31:18.472Z,67.80
2023-02-24T04:33:50.343Z,63.50
2023-02-24T04:36:21.950Z,65.85
2023-02-24T04:38:49.868Z,61.73
2023-02-24T04:41:21.962Z,68.43
2023-02-24T04:43:53.483Z,63.40
2023-02-24T04:46:21.129Z,63.65
2023-02-24T04:48:48.629Z,63.70
2023-02-24T04:51:16.053Z,61.30
2023-02-24T04:53:43.294Z,63.97
2023-02-24T04:56:10.613Z,67.53
2023-02-24T04:58:39.727Z,63.10
2023-02-24T05:01:11.118Z,63.55
2023-02-24T05:03:42.359Z,60.72
2023-02-24T05:06:17.258Z,62.15
2023-02-24T05:08:45.116Z,62.92
2023-02-24T05:11:15.987Z,66.13
2023-02-24T05:13:47.176Z,59.72
2023-02-24T05:16:17.527Z,63.95
2023-02-24T05:18:45.972Z,71.18
2023-02-24T05:21:34.413Z,62.75
2023-02-24T05:24:06.777Z,60.33
2023-02-24T05:26:37.319Z,63.00
2023-02-24T05:31:32.552Z,63.92
2023-02-24T05:34:05.928Z,62.00
2023-02-24T05:36:38.948Z,67.25
2023-02-24T05:39:12.296Z,65.60
2023-02-24T05:41:42.449Z,67.97
2023-02-24T05:46:42.910Z,62.42
2023-02-24T05:49:23.421Z,72.95
2023-02-24T05:51:55.238Z,75.63
2023-02-24T05:54:31.134Z,73.63
2023-02-24T05:57:11.836Z,78.13
2023-02-24T05:59:41.304Z,75.88
2023-02-24T06:02:11.420Z,76.35
2023-02-24T06:07:13.952Z,68.05
2023-02-24T06:09:43.109Z,74.65
2023-02-24T06:12:11.577Z,72.25
2023-02-24T06:14:39.091Z,72.53
2023-02-24T06:17:06.437Z,73.53
2023-02-24T06:19:34.012Z,72.32
2023-02-24T06:22:01.871Z,71.28
2023-02-24T06:24:31.084Z,69.22
2023-02-24T06:27:09.819Z,64.07
2023-02-24T06:29:37.975Z,71.78
2023-02-24T06:32:11.585Z,65.85
2023-02-24T06:34:39.720Z,68.55
2023-02-24T06:37:08.962Z,74.28
2023-02-24T06:39:37.022Z,71.33
2023-02-24T06:42:05.876Z,106.35
2023-02-24T06:44:34.449Z,80.43
2023-02-24T06:47:02.742Z,68.53
2023-02-24T06:49:30.221Z,64.07
2023-02-24T06:51:57.764Z,71.25
2023-02-24T06:54:29.052Z,67.93
2023-02-24T06:57:08.242Z,67.63
2023-02-24T06:59:36.061Z,66.93
2023-02-24T07:02:15.184Z,101.22
2023-02-24T07:04:45.467Z,72.10
2023-02-24T07:07:14.686Z,69.32
2023-02-24T07:09:42.713Z,66.30
2023-02-24T07:12:11.193Z,68.68
2023-02-24T07:14:38.743Z,66.07
2023-02-24T07:17:06.616Z,78.47
2023-02-24T07:19:34.582Z,71.18
2023-02-24T07:22:03.925Z,68.70
2023-02-24T07:24:36.919Z,70.55
2023-02-24T07:27:22.561Z,73.90
2023-02-24T07:29:52.978Z,75.72
2023-02-24T07:32:25.668Z,79.10
2023-02-24T07:34:53.289Z,80.47
2023-02-24T07:37:21.195Z,70.47
2023-02-24T07:39:50.161Z,69.15
2023-02-24T07:42:17.413Z,75.10
2023-02-24T07:44:48.220Z,80.30
2023-02-24T07:47:16.420Z,69.53
2023-02-24T07:49:45.238Z,76.00
2023-02-24T07:52:12.845Z,79.28
2023-02-24T07:54:40.571Z,70.03
2023-02-24T07:57:13.359Z,68.43
2023-02-24T07:59:45.207Z,69.82
2023-02-24T08:02:13.894Z,72.55
2023-02-24T08:04:44.596Z,79.80
2023-02-24T08:07:14.719Z,67.00
2023-02-24T08:09:45.480Z,73.95
2023-02-24T08:12:21.983Z,76.25
2023-02-24T08:14:53.515Z,72.45
2023-02-24T08:17:26.517Z,85.78
2023-02-24T08:20:15.791Z,74.05
2023-02-24T08:22:46.802Z,75.37
2023-02-24T08:25:19.421Z,70.70
2023-02-24T08:28:06.713Z,69.25
2023-02-24T08:30:40.703Z,68.10
2023-02-24T08:33:11.419Z,74.32
2023-02-24T08:35:45.121Z,70.07
2023-02-24T08:38:18.163Z,65.65
2023-02-24T08:40:51.375Z,70.07
2023-02-24T08:43:30.760Z,68.75
2023-02-24T08:46:13.593Z,70.18
2023-02-24T08:48:43.533Z,67.82
2023-02-24T08:51:15.991Z,63.85
2023-02-24T08:53:46.823Z,65.00
2023-02-24T08:56:24.081Z,69.80
2023-02-24T08:58:57.701Z,67.13
2023-02-24T09:01:27.950Z,74.03
2023-02-24T09:03:58.133Z,81.18
2023-02-24T09:07:11.589Z,70.32
2023-02-24T09:09:42.376Z,62.55
2023-02-24T09:12:22.031Z,64.53
2023-02-24T09:14:57.156Z,66.13
2023-02-24T09:18:02.030Z,62.33
2023-02-24T09:20:47.939Z,69.55
2023-02-24T09:23:21.116Z,71.20
2023-02-24T09:25:54.369Z,58.47
2023-02-24T09:28:26.922Z,61.72
2023-02-24T09:30:57.242Z,57.58
2023-02-24T09:33:28.689Z,58.38
2023-02-24T09:36:10.319Z,55.58
2023-02-24T09:38:58.273Z,63.03
2023-02-24T09:41:54.648Z,59.08
2023-02-24T09:44:40.296Z,54.05
2023-02-24T09:47:31.099Z,60.55
2023-02-24T09:50:04.531Z,59.35
2023-02-24T09:52:41.550Z,58.83
2023-02-24T09:55:46.870Z,65.13
2023-02-24T09:58:43.299Z,53.42
2023-02-24T10:01:33.728Z,58.28
2023-02-24T10:06:49.808Z,64.38
2023-02-24T10:09:26.647Z,55.50
2023-02-24T10:12:04.544Z,59.78
2023-02-24T10:15:15.585Z,57.88
2023-02-24T10:17:47.394Z,54.22
2023-02-24T10:20:39.701Z,53.67
2023-02-24T10:23:29.814Z,49.55
2023-02-24T10:26:07.199Z,50.72
2023-02-24T10:28:57.457Z,46.72
2023-02-24T10:34:01.965Z,45.95
2023-02-24T10:36:35.610Z,44.67
2023-02-24T10:39:25.893Z,43.97
2023-02-24T10:41:58.730Z,43.28
2023-02-24T10:44:36.384Z,42.53
2023-02-24T10:47:13.299Z,43.15
2023-02-24T10:49:57.970Z,43.10
2023-02-24T10:52:37.486Z,42.13
2023-02-24T10:55:47.186Z,41.65
2023-02-24T10:58:28.362Z,37.70
2023-02-24T11:01:07.262Z,38.75
2023-02-24T11:03:46.401Z,41.38
2023-02-24T11:06:41.927Z,39.65
2023-02-24T11:09:29.360Z,45.90
2023-02-24T11:12:21.341Z,41.55
2023-02-24T11:15:18.498Z,36.78
2023-02-24T11:17:58.337Z,39.97
2023-02-24T11:20:48.005Z,38.50
2023-02-24T11:23:38.805Z,39.83
2023-02-24T11:26:17.228Z,43.13
2023-02-24T11:28:56.566Z,36.70
2023-02-24T11:31:56.001Z,37.10
2023-02-24T11:34:25.287Z,37.45
2023-02-24T11:37:09.364Z,43.35
2023-02-24T11:39:55.416Z,38.42
2023-02-24T11:42:27.325Z,45.55
2023-02-24T11:45:01.694Z,36.10
2023-02-24T11:47:33.858Z,33.00
2023-02-24T11:50:26.465Z,34.70
2023-02-24T11:52:56.097Z,37.42
2023-02-24T11:55:32.588Z,32.28
2023-02-24T11:58:03.498Z,39.78
2023-02-24T12:00:34.000Z,32.42
2023-02-24T12:03:13.752Z,35.70
2023-02-24T12:05:44.867Z,34.45
2023-02-24T12:08:22.527Z,38.63
2023-02-24T12:10:52.573Z,35.25
2023-02-24T12:16:12.923Z,29.75
2023-02-24T12:18:52.934Z,34.50
2023-02-24T12:21:24.673Z,35.05
2023-02-24T12:23:55.660Z,33.72
2023-02-24T12:26:27.352Z,31.17
2023-02-24T12:29:22.897Z,39.50
2023-02-24T12:32:16.123Z,36.38
2023-02-24T12:34:51.780Z,35.45
2023-02-24T12:37:37.271Z,39.20
2023-02-24T12:40:31.932Z,36.95
2023-02-24T12:43:04.820Z,31.15
2023-02-24T12:45:54.122Z,32.30
2023-02-24T12:48:50.346Z,33.78
2023-02-24T12:51:42.816Z,33.72
2023-02-24T12:54:13.292Z,34.65
2023-02-24T12:56:54.685Z,30.38
2023-02-24T12:59:26.465Z,31.20
2023-02-24T13:02:00.344Z,28.40
2023-02-24T13:04:45.636Z,28.17
2023-02-24T13:07:37.042Z,32.78
2023-02-24T13:10:13.205Z,29.08
2023-02-24T13:12:55.019Z,29.88
2023-02-24T13:15:25.476Z,29.33
2023-02-24T13:17:57.000Z,28.58
2023-02-24T13:20:36.576Z,36.25
2023-02-24T13:23:20.605Z,27.52
2023-02-24T13:25:53.035Z,26.38
2023-02-24T13:28:33.366Z,29.15
2023-02-24T13:31:14.131Z,25.98
2023-02-24T13:33:43.921Z,24.58
2023-02-24T13:36:23.675Z,20.77
2023-02-24T13:39:46.590Z,25.08
2023-02-24T13:42:20.333Z,23.83
2023-02-24T13:44:52.071Z,26.60
2023-02-24T13:47:43.173Z,25.38
2023-02-24T13:50:27.717Z,25.30
2023-02-24T13:53:10.315Z,27.50
2023-02-24T13:56:05.136Z,28.05
2023-02-24T13:59:06.765Z,22.23
2023-02-24T14:01:56.407Z,21.90
2023-02-24T14:04:30.941Z,21.75
2023-02-24T14:07:05.210Z,19.38
2023-02-24T14:10:02.647Z,26.52
2023-02-24T14:12:32.801Z,27.10
2023-02-24T14:15:00.636Z,22.30
2023-02-24T14:17:33.046Z,23.15
2023-02-24T14:20:09.628Z,18.20
2023-02-24T14:22:48.835Z,24.23
2023-02-24T14:25:18.843Z,22.93
2023-02-24T14:27:49.771Z,21.98
2023-02-24T14:30:38.799Z,22.50
2023-02-24T14:33:08.042Z,21.05
2023-02-24T14:35:43.300Z,27.60
2023-02-24T14:38:31.966Z,19.90
2023-02-24T14:40:59.577Z,22.60
2023-02-24T14:43:27.357Z,23.15
2023-02-24T14:46:06.278Z,20.67
2023-02-24T14:51:24.251Z,19.63
2023-02-24T14:53:57.904Z,22.60
2023-02-24T14:56:30.694Z,17.27
2023-02-24T14:59:04.509Z,17.20
2023-02-24T15:01:38.311Z,12.50
2023-02-24T15:04:43.648Z,13.55
2023-02-24T15:07:20.060Z,17.65
2023-02-24T15:09:48.600Z,14.35
2023-02-24T15:12:19.000Z,19.88
2023-02-24T15:15:01.212Z,15.48
2023-02-24T15:17:29.341Z,12.45
2023-02-24T15:19:56.894Z,20.67
2023-02-24T15:22:33.560Z,16.45
2023-02-24T15:25:24.033Z,17.40
2023-02-24T15:27:59.532Z,20.23
2023-02-24T15:30:40.897Z,20.58
2023-02-24T15:33:21.240Z,14.95
2023-02-24T15:35:51.376Z,15.65
2023-02-24T15:38:24.076Z,12.82
2023-02-24T15:40:53.875Z,11.43
2023-02-24T15:43:37.237Z,17.42
2023-02-24T15:46:28.755Z,16.27
2023-02-24T15:48:58.220Z,12.80
2023-02-24T15:51:37.881Z,17.92
2023-02-24T15:54:08.608Z,15.00
2023-02-24T15:56:36.513Z,11.55
2023-02-24T15:59:03.841Z,16.83
2023-02-24T16:01:31.489Z,11.68
2023-02-24T16:04:04.891Z,12.23
2023-02-24T16:06:33.939Z,14.80
2023-02-24T16:09:05.315Z,13.13
2023-02-24T16:11:36.716Z,13.88
2023-02-24T16:14:04.383Z,11.68
2023-02-24T16:16:33.506Z,12.48
2023-02-24T16:19:01.054Z,16.47
2023-02-24T16:21:28.527Z,12.32
2023-02-24T16:23:56.307Z,11.10
2023-02-24T16:26:27.390Z,9.82
2023-02-24T16:28:57.110Z,10.88
2023-02-24T16:31:26.761Z,11.77
2023-02-24T16:33:56.086Z,12.27
2023-02-24T16:36:25.528Z,15.45
2023-02-24T16:38:53.229Z,10.48
2023-02-24T16:41:21.122Z,12.88
2023-02-24T16:43:48.597Z,9.43
2023-02-24T16:46:18.582Z,14.93
2023-02-24T16:48:48.281Z,12.65
2023-02-24T16:51:16.297Z,11.52
2023-02-24T16:53:43.884Z,16.23
2023-02-24T16:56:12.609Z,13.75
2023-02-24T16:58:39.992Z,12.77
2023-02-24T17:01:07.664Z,11.93
2023-02-24T17:03:42.771Z,16.17
2023-02-24T17:06:10.227Z,16.23
2023-02-24T17:08:37.886Z,11.70
2023-02-24T17:11:05.412Z,11.82
2023-02-24T17:13:32.807Z,17.92
2023-02-24T17:16:00.293Z,39.25
2023-02-24T17:18:27.745Z,12.73
2023-02-24T17:20:55.473Z,13.13
2023-02-24T17:23:23.059Z,14.85
2023-02-24T17:25:53.730Z,14.95
2023-02-24T17:28:21.241Z,13.77
2023-02-24T17:30:48.655Z,11.07
2023-02-24T17:33:16.316Z,16.00
2023-02-24T17:35:44.128Z,12.68
2023-02-24T17:38:19.108Z,17.25
2023-02-24T17:40:47.308Z,13.65
2023-02-24T17:43:14.900Z,15.38
2023-02-24T17:45:45.561Z,13.15
2023-02-24T17:48:14.615Z,12.88
2023-02-24T17:50:43.071Z,16.75
2023-02-24T17:53:10.662Z,13.00
2023-02-24T17:55:37.951Z,12.90
2023-02-24T17:58:05.384Z,13.90
2023-02-24T18:00:32.844Z,14.50
2023-02-24T18:03:02.965Z,12.55
2023-02-24T18:05:31.699Z,18.85
2023-02-24T18:07:59.214Z,17.00
2023-02-24T18:10:27.400Z,17.83
2023-02-24T18:12:54.748Z,17.73
2023-02-24T18:15:22.622Z,13.07
2023-02-24T18:17:50.097Z,12.70
2023-02-24T18:20:17.898Z,12.63
2023-02-24T18:22:45.528Z,16.35
2023-02-24T18:25:13.632Z,20.83
2023-02-24T18:27:41.376Z,18.13
2023-02-24T18:30:10.267Z,15.70
2023-02-24T18:32:44.594Z,11.97
2023-02-24T18:35:12.952Z,16.08
2023-02-24T18:37:40.428Z,14.90
2023-02-24T18:40:08.280Z,13.95
2023-02-24T18:42:35.595Z,17.30
2023-02-24T18:45:03.341Z,14.98
2023-02-24T18:47:30.708Z,16.55
2023-02-24T18:49:58.169Z,19.58
2023-02-24T18:52:25.636Z,17.38
2023-02-24T18:54:53.209Z,19.65
2023-02-24T18:57:20.611Z,18.63
2023-02-24T18:59:50.978Z,19.48
2023-02-24T19:02:18.415Z,20.77
2023-02-24T19:04:46.130Z,18.17
2023-02-24T19:07:13.674Z,15.00
2023-02-24T19:09:42.610Z,18.75
2023-02-24T19:12:09.964Z,18.40
2023-02-24T19:14:37.282Z,15.00
2023-02-24T19:17:04.713Z,17.20
2023-02-24T19:19:32.201Z,14.23
2023-02-24T19:22:00.234Z,12.48
2023-02-24T19:24:28.143Z,9.75
2023-02-24T19:26:56.011Z,11.50
2023-02-24T19:29:23.536Z,16.00
2023-02-24T19:31:54.199Z,12.98
2023-02-24T19:34:22.677Z,12.07
2023-02-24T19:36:50.197Z,12.40
2023-02-24T19:39:18.941Z,13.02
2023-02-24T19:41:48.549Z,12.43
2023-02-24T19:44:17.163Z,13.43
2023-02-24T19:46:44.678Z,16.40
2023-02-24T19:49:11.973Z,16.65
2023-02-24T19:51:39.263Z,18.60
2023-02-24T19:54:06.909Z,16.95
2023-02-24T19:56:36.608Z,25.63
2023-02-24T19:59:05.561Z,13.00
2023-02-24T20:01:33.126Z,16.05
2023-02-24T20:04:02.478Z,13.85
2023-02-24T20:06:36.414Z,16.50
2023-02-24T20:09:21.847Z,26.38
2023-02-24T20:11:50.597Z,16.83
2023-02-24T20:14:19.892Z,17.02
2023-02-24T20:16:47.940Z,14.80
2023-02-24T20:19:15.683Z,17.25
2023-02-24T20:21:43.180Z,17.20
2023-02-24T20:24:13.974Z,17.42
2023-02-24T20:26:43.357Z,19.42
2023-02-24T20:29:11.506Z,25.70
2023-02-24T20:31:40.512Z,17.00
2023-02-24T20:34:09.385Z,18.27
2023-02-24T20:36:37.203Z,23.25
2023-02-24T20:39:06.584Z,23.75
2023-02-24T20:41:34.743Z,22.80
2023-02-24T20:44:02.186Z,21.00
2023-02-24T20:46:31.595Z,20.00
2023-02-24T20:49:05.478Z,22.20
2023-02-24T20:51:34.328Z,24.65
2023-02-24T20:54:01.602Z,21.40
2023-02-24T20:56:34.162Z,20.10
2023-02-24T20:59:04.698Z,19.60
2023-02-24T21:01:33.196Z,20.25
2023-02-24T21:04:01.073Z,23.60
2023-02-24T21:06:29.034Z,20.65
2023-02-24T21:08:57.333Z,23.88
2023-02-24T21:11:25.410Z,18.30
2023-02-24T21:13:53.052Z,23.20
2023-02-24T21:16:21.773Z,26.75
2023-02-24T21:18:50.566Z,27.92
2023-02-24T21:21:19.551Z,23.45
2023-02-24T21:23:47.392Z,19.83
2023-02-24T21:26:14.967Z,20.63
2023-02-24T21:28:42.453Z,25.10
2023-02-24T21:31:13.250Z,21.40
2023-02-24T21:33:41.183Z,22.65
2023-02-24T21:36:13.562Z,21.00
2023-02-24T21:38:41.462Z,23.55
2023-02-24T21:41:13.337Z,23.40
2023-02-24T21:43:41.563Z,22.00
2023-02-24T21:46:09.294Z,25.80
2023-02-24T21:48:37.278Z,26.08
2023-02-24T21:51:06.934Z,25.73
2023-02-24T21:53:35.856Z,20.15
2023-02-24T21:56:16.373Z,22.80
2023-02-24T21:58:58.480Z,23.67
2023-02-24T22:01:34.727Z,20.90
2023-02-24T22:04:04.825Z,21.08
2023-02-24T22:06:34.957Z,23.70
2023-02-24T22:09:04.554Z,30.83
2023-02-24T22:11:35.249Z,30.17
2023-02-24T22:14:03.113Z,24.88
2023-02-24T22:16:30.616Z,22.80
2023-02-24T22:18:58.226Z,23.55
2023-02-24T22:21:27.490Z,24.48
2023-02-24T22:23:57.740Z,24.47
2023-02-24T22:26:26.832Z,23.13
2023-02-24T22:28:55.108Z,28.83
2023-02-24T22:31:26.090Z,25.77
2023-02-24T22:33:54.377Z,29.17
2023-02-24T22:36:25.202Z,27.95
2023-02-24T22:38:57.229Z,27.75
2023-02-24T22:41:31.346Z,27.13
2023-02-24T22:43:59.840Z,24.23
2023-02-24T22:46:33.027Z,26.73
2023-02-24T22:49:00.752Z,24.02
2023-02-24T22:51:28.630Z,23.15
2023-02-24T22:53:56.761Z,27.35
2023-02-24T22:56:26.422Z,24.35
2023-02-24T22:58:56.089Z,31.73
2023-02-24T23:01:26.466Z,28.40
2023-02-24T23:03:54.125Z,27.77
2023-02-24T23:06:24.031Z,29.98
2023-02-24T23:11:24.936Z,29.08
2023-02-24T23:13:52.696Z,31.58
2023-02-24T23:16:27.376Z,32.15
2023-02-24T23:18:58.320Z,24.48
2023-02-24T23:21:31.494Z,23.83
2023-02-24T23:24:00.263Z,27.33
2023-02-24T23:26:31.607Z,28.08
2023-02-24T23:28:59.567Z,27.95
2023-02-24T23:31:27.403Z,30.58
2023-02-24T23:33:55.125Z,36.60
2023-02-24T23:36:24.008Z,28.50
2023-02-24T23:38:52.781Z,30.65
2023-02-24T23:41:20.246Z,28.73
2023-02-24T23:43:47.696Z,21.30
2023-02-24T23:46:15.177Z,29.92
2023-02-24T23:48:42.496Z,28.90
2023-02-24T23:51:13.934Z,25.48
2023-02-24T23:53:43.142Z,23.60
2023-02-24T23:56:31.738Z,20.50
2023-02-24T23:58:59.482Z,26.60
